createdAt,value
2023-02-11T00:01:32.420Z,43.40
2023-02-11T00:04:00.701Z,60.70
2023-02-11T00:06:29.553Z,78.50
2023-02-11T00:08:57.608Z,103.60
2023-02-11T00:11:30.266Z,75.20
2023-02-11T00:13:59.426Z,49.90
2023-02-11T00:16:27.385Z,38.10
2023-02-11T00:18:55.752Z,92.50
2023-02-11T00:21:25.433Z,94.50
2023-02-11T00:23:54.956Z,81.80
2023-02-11T00:26:24.945Z,57.40
2023-02-11T00:28:53.601Z,43.50
2023-02-11T00:31:22.188Z,34.00
2023-02-11T00:33:50.112Z,30.90
2023-02-11T00:36:20.642Z,29.50
2023-02-11T00:38:49.953Z,30.70
2023-02-11T00:41:18.258Z,27.10
2023-02-11T00:43:46.380Z,30.30
2023-02-11T00:46:14.813Z,26.60
2023-02-11T00:48:42.980Z,24.40
2023-02-11T00:51:11.024Z,22.00
2023-02-11T00:53:38.941Z,20.50
2023-02-11T00:56:06.967Z,23.10
2023-02-11T00:58:36.556Z,23.30
2023-02-11T01:01:05.336Z,24.40
2023-02-11T01:03:34.218Z,24.70
2023-02-11T01:06:02.178Z,24.50
2023-02-11T01:08:30.536Z,24.30
2023-02-11T01:11:05.603Z,27.00
2023-02-11T01:13:35.307Z,25.00
2023-02-11T01:16:03.745Z,25.50
2023-02-11T01:18:32.221Z,25.20
2023-02-11T01:21:00.132Z,25.20
2023-02-11T01:23:28.055Z,23.10
2023-02-11T01:25:56.473Z,22.10
2023-02-11T01:28:25.497Z,22.10
2023-02-11T01:30:53.775Z,23.10
2023-02-11T01:33:22.550Z,22.20
2023-02-11T01:35:50.967Z,25.10
2023-02-11T01:38:25.321Z,23.20
2023-02-11T01:40:56.312Z,24.80
2023-02-11T01:43:24.829Z,24.40
2023-02-11T01:45:54.473Z,25.70
2023-02-11T01:48:46.365Z,25.30
2023-02-11T01:51:18.721Z,27.10
2023-02-11T01:54:05.393Z,25.90
2023-02-11T01:56:53.494Z,25.60
2023-02-11T01:59:28.968Z,22.60
2023-02-11T02:01:58.617Z,21.40
2023-02-11T02:04:31.552Z,22.60
2023-02-11T02:07:03.065Z,26.50
2023-02-11T02:09:33.707Z,25.80
2023-02-11T02:12:01.541Z,25.60
2023-02-11T02:14:30.330Z,26.00
2023-02-11T02:16:58.418Z,27.20
2023-02-11T02:20:02.387Z,25.70
2023-02-11T02:22:42.359Z,28.00
2023-02-11T02:25:16.053Z,29.00
2023-02-11T02:27:46.732Z,28.50
2023-02-11T02:30:27.055Z,26.60
2023-02-11T02:33:23.913Z,28.00
2023-02-11T02:36:18.914Z,25.60
2023-02-11T02:38:49.596Z,24.50
2023-02-11T02:41:19.221Z,22.70
2023-02-11T02:43:50.716Z,25.50
2023-02-11T02:48:57.161Z,26.10
2023-02-11T02:52:02.794Z,27.10
2023-02-11T02:54:58.175Z,26.80
2023-02-11T02:57:32.883Z,29.00
2023-02-11T03:00:29.851Z,26.40
2023-02-11T03:03:05.436Z,28.00
2023-02-11T03:05:57.319Z,27.90
2023-02-11T03:08:36.894Z,28.50
2023-02-11T03:11:04.880Z,25.60
2023-02-11T03:13:34.268Z,25.60
2023-02-11T03:16:19.666Z,26.30
2023-02-11T03:18:53.367Z,28.00
2023-02-11T03:21:21.346Z,28.00
2023-02-11T03:23:57.066Z,30.10
2023-02-11T03:26:31.636Z,32.10
2023-02-11T03:29:04.185Z,32.10
2023-02-11T03:31:59.407Z,30.60
2023-02-11T03:34:38.435Z,32.30
2023-02-11T03:37:10.051Z,31.70
2023-02-11T03:39:46.911Z,29.50
2023-02-11T03:42:15.288Z,31.20
2023-02-11T03:45:16.777Z,27.80
2023-02-11T03:47:48.744Z,25.30
2023-02-11T03:52:44.689Z,27.80
2023-02-11T03:55:15.532Z,30.50
2023-02-11T03:57:43.983Z,31.30
2023-02-11T04:00:13.282Z,31.70
2023-02-11T04:02:42.020Z,32.80
2023-02-11T04:05:11.453Z,31.90
2023-02-11T04:07:39.323Z,33.30
2023-02-11T04:10:07.745Z,29.10
2023-02-11T04:12:35.829Z,28.50
2023-02-11T04:15:03.904Z,26.20
2023-02-11T04:17:32.134Z,24.90
2023-02-11T04:19:59.951Z,23.80
2023-02-11T04:22:27.950Z,24.50
2023-02-11T04:24:55.864Z,24.60
2023-02-11T04:27:24.586Z,26.80
2023-02-11T04:29:54.154Z,25.90
2023-02-11T04:32:22.526Z,26.90
2023-02-11T04:34:52.061Z,26.80
2023-02-11T04:37:21.324Z,27.50
2023-02-11T04:39:49.117Z,26.60
2023-02-11T04:42:17.288Z,26.70
2023-02-11T04:44:45.092Z,26.90
2023-02-11T04:47:15.263Z,23.30
2023-02-11T04:49:43.410Z,23.90
2023-02-11T04:52:11.943Z,21.90
2023-02-11T04:54:40.801Z,18.40
2023-02-11T04:57:08.941Z,21.60
2023-02-11T04:59:37.963Z,22.60
2023-02-11T05:02:06.321Z,23.80
2023-02-11T05:04:35.008Z,23.10
2023-02-11T05:07:03.597Z,24.20
2023-02-11T05:09:35.306Z,24.40
2023-02-11T05:12:04.670Z,23.60
2023-02-11T05:14:33.329Z,24.10
2023-02-11T05:17:01.323Z,24.40
2023-02-11T05:19:31.282Z,22.70
2023-02-11T05:22:03.103Z,29.80
2023-02-11T05:24:32.398Z,22.60
2023-02-11T05:27:00.623Z,23.30
2023-02-11T05:29:28.569Z,22.30
2023-02-11T05:32:00.197Z,22.80
2023-02-11T05:34:28.510Z,23.20
2023-02-11T05:36:56.557Z,25.70
2023-02-11T05:39:24.518Z,24.90
2023-02-11T05:41:52.361Z,26.20
2023-02-11T05:44:20.318Z,25.90
2023-02-11T05:46:49.220Z,26.40
2023-02-11T13:00:40.480Z,36.00
2023-02-11T13:03:13.771Z,38.30
2023-02-11T13:18:56.534Z,24.90
2023-02-11T13:21:50.911Z,23.40
2023-02-11T13:24:38.581Z,23.00
2023-02-11T13:27:24.633Z,22.50
2023-02-11T13:30:20.479Z,24.10
2023-02-11T13:32:55.922Z,19.40
2023-02-11T13:35:34.242Z,20.80
2023-02-11T13:38:17.143Z,18.80
2023-02-11T13:40:45.348Z,19.10
2023-02-11T13:43:24.191Z,17.20
2023-02-11T13:45:52.103Z,17.40
2023-02-11T13:48:22.457Z,15.20
2023-02-11T13:50:55.933Z,14.50
2023-02-11T13:53:23.881Z,13.90
2023-02-11T13:55:53.186Z,16.20
2023-02-11T16:25:19.078Z,22.20
2023-02-11T16:27:52.014Z,21.80
2023-02-11T16:30:28.966Z,21.70
2023-02-11T16:32:56.914Z,21.70
2023-02-11T16:35:24.759Z,20.50
2023-02-11T16:37:52.883Z,20.00
2023-02-11T16:40:20.819Z,20.40
2023-02-11T16:42:49.916Z,20.60
2023-02-11T16:45:17.764Z,21.40
2023-02-11T16:47:46.217Z,21.00
2023-02-11T16:50:24.299Z,21.10
2023-02-11T16:52:52.449Z,20.80
2023-02-11T16:55:22.055Z,20.60
2023-02-11T16:57:50.424Z,20.50
2023-02-11T17:00:18.742Z,19.90
2023-02-11T17:02:46.868Z,20.30
2023-02-11T17:05:20.073Z,20.70
2023-02-11T17:07:48.826Z,20.10
2023-02-11T17:10:18.837Z,19.50
2023-02-11T17:12:48.690Z,21.20
2023-02-11T17:15:16.928Z,20.30
2023-02-11T17:17:45.883Z,18.60
2023-02-11T17:20:14.487Z,22.20
2023-02-11T17:22:42.404Z,20.20
2023-02-11T17:25:10.591Z,21.30
2023-02-11T17:27:38.660Z,21.90
2023-02-11T17:30:07.598Z,21.40
2023-02-11T17:32:36.548Z,21.30
2023-02-11T17:35:07.036Z,20.10
2023-02-11T17:37:35.697Z,21.00
2023-02-11T17:40:03.799Z,19.40
2023-02-11T17:42:32.150Z,20.60
2023-02-11T17:45:00.117Z,21.80
2023-02-11T17:47:28.341Z,19.80
2023-02-11T17:49:56.216Z,21.00
2023-02-11T17:52:24.405Z,20.60
2023-02-11T17:54:52.255Z,19.70
2023-02-11T17:57:20.284Z,22.00
2023-02-11T17:59:48.310Z,20.20
2023-02-11T18:02:16.412Z,20.30
2023-02-11T18:04:45.353Z,19.90
2023-02-11T18:07:13.467Z,21.80
2023-02-11T18:09:43.942Z,20.50
2023-02-11T18:12:11.952Z,20.80
2023-02-11T18:14:40.651Z,20.60
2023-02-11T18:17:08.908Z,19.70
2023-02-11T18:19:37.658Z,20.60
2023-02-11T18:22:05.650Z,21.20
2023-02-11T18:24:35.088Z,22.00
2023-02-11T18:27:03.100Z,23.50
2023-02-11T18:29:31.628Z,21.00
2023-02-11T18:31:59.524Z,20.20
2023-02-11T18:34:28.671Z,22.00
2023-02-11T18:36:57.050Z,21.20
2023-02-11T18:39:26.464Z,21.50
2023-02-11T18:41:56.795Z,21.80
2023-02-11T18:44:26.139Z,21.80
2023-02-11T18:46:54.067Z,20.90
2023-02-11T18:49:22.157Z,23.70
2023-02-11T18:51:49.984Z,23.10
2023-02-11T18:54:20.466Z,22.20
2023-02-11T18:56:48.819Z,21.40
2023-02-11T18:59:17.376Z,23.30
2023-02-11T19:01:46.951Z,23.60
2023-02-11T19:04:19.765Z,24.50
2023-02-11T19:06:49.522Z,22.60
2023-02-11T19:09:22.126Z,24.50
2023-02-11T19:11:50.494Z,21.20
2023-02-11T19:14:26.335Z,24.30
2023-02-11T19:16:55.903Z,24.50
2023-02-11T19:19:25.771Z,23.30
2023-02-11T19:21:56.072Z,26.40
2023-02-11T19:24:24.373Z,25.60
2023-02-11T19:26:55.212Z,25.00
2023-02-11T19:29:23.436Z,25.70
2023-02-11T19:31:51.559Z,24.50
2023-02-11T19:34:22.720Z,26.20
2023-02-11T19:36:55.076Z,24.20
2023-02-11T19:39:24.796Z,24.70
2023-02-11T19:41:52.803Z,26.30
2023-02-11T19:44:20.811Z,26.30
2023-02-11T19:46:50.246Z,27.90
2023-02-11T19:49:23.106Z,25.70
2023-02-11T19:51:52.217Z,27.00
2023-02-11T19:54:20.457Z,25.90
2023-02-11T19:56:48.860Z,25.50
2023-02-11T19:59:16.745Z,25.90
2023-02-11T20:01:47.754Z,26.00
2023-02-11T20:04:16.852Z,26.20
2023-02-11T20:06:45.288Z,25.80
2023-02-11T20:09:14.487Z,26.00
2023-02-11T20:11:42.630Z,25.90
2023-02-11T20:14:12.836Z,26.60
2023-02-11T20:16:48.537Z,26.60
2023-02-11T20:19:21.526Z,27.10
2023-02-11T20:21:51.988Z,25.60
2023-02-11T20:24:20.119Z,26.10
2023-02-11T20:26:48.871Z,26.20
2023-02-11T20:29:17.828Z,28.80
2023-02-11T20:31:46.110Z,27.00
2023-02-11T20:34:14.357Z,28.60
2023-02-11T20:36:42.771Z,24.90
2023-02-11T20:39:10.839Z,24.60
2023-02-11T20:41:42.036Z,30.00
2023-02-11T20:44:10.394Z,25.40
2023-02-11T20:46:41.085Z,26.10
2023-02-11T20:49:12.942Z,26.10
2023-02-11T20:51:41.270Z,27.70
2023-02-11T20:54:17.778Z,27.10
2023-02-11T20:56:51.147Z,26.20
2023-02-11T20:59:20.907Z,27.10
2023-02-11T21:01:50.905Z,27.80
2023-02-11T21:04:20.387Z,29.50
2023-02-11T21:06:50.048Z,32.60
2023-02-11T21:09:19.950Z,28.10
2023-02-11T21:11:51.608Z,27.90
2023-02-11T21:14:20.749Z,26.90
2023-02-11T21:16:48.869Z,27.50
2023-02-11T21:19:16.908Z,28.70
2023-02-11T21:21:45.046Z,27.60
2023-02-11T21:24:12.897Z,29.70
2023-02-11T21:26:42.610Z,26.20
2023-02-11T21:29:10.976Z,28.40
2023-02-11T21:31:39.138Z,27.30
2023-02-11T21:34:07.409Z,27.50
2023-02-11T21:36:36.151Z,27.70
2023-02-11T21:39:05.620Z,27.40
2023-02-11T21:41:33.966Z,26.90
2023-02-11T21:44:01.912Z,30.50
2023-02-11T21:46:30.824Z,28.80
2023-02-11T21:49:00.407Z,27.50
2023-02-11T21:51:28.436Z,28.50
2023-02-11T21:53:57.745Z,30.40
2023-02-11T21:56:28.634Z,28.60
2023-02-11T21:58:57.537Z,29.20
2023-02-11T22:01:30.432Z,28.10
2023-02-11T22:03:58.522Z,27.20
2023-02-11T22:06:27.880Z,27.90
2023-02-11T22:08:57.064Z,28.50
2023-02-11T22:11:25.166Z,27.90
2023-02-11T22:13:55.161Z,27.80
2023-02-11T22:16:25.495Z,29.00
2023-02-11T22:18:53.471Z,27.70
2023-02-11T22:21:22.228Z,30.70
2023-02-11T22:23:50.614Z,29.50
2023-02-11T22:26:21.118Z,27.60
2023-02-11T22:28:50.464Z,27.00
2023-02-11T22:31:20.586Z,28.30
2023-02-11T22:33:49.057Z,30.00
2023-02-11T22:36:27.745Z,31.30
2023-02-11T22:38:56.083Z,29.60
2023-02-11T22:41:24.625Z,28.90
2023-02-11T22:43:52.549Z,30.00
2023-02-11T22:46:20.784Z,29.90
2023-02-11T22:48:48.910Z,30.10
2023-02-11T22:51:27.990Z,29.10
2023-02-11T22:53:59.571Z,29.50
2023-02-11T22:56:28.349Z,29.70
2023-02-11T22:59:00.916Z,27.70
2023-02-11T23:01:29.448Z,29.50
2023-02-11T23:03:59.060Z,27.60
2023-02-11T23:06:27.070Z,28.70
2023-02-11T23:08:55.018Z,27.70
2023-02-11T23:11:24.419Z,28.70
2023-02-11T23:13:52.763Z,30.50
2023-02-11T23:16:23.021Z,28.00
2023-02-11T23:18:51.254Z,35.60
2023-02-11T23:21:22.180Z,40.40
2023-02-11T23:23:54.274Z,31.20
2023-02-11T23:26:22.161Z,29.40
2023-02-11T23:28:50.659Z,28.80
2023-02-11T23:31:21.084Z,30.10
2023-02-11T23:33:49.122Z,28.90
2023-02-11T23:36:17.432Z,26.80
2023-02-11T23:38:47.509Z,27.80
2023-02-11T23:41:15.939Z,27.30
2023-02-11T23:44:05.057Z,27.50
2023-02-11T23:46:38.828Z,27.50
2023-02-11T23:49:06.935Z,27.50
2023-02-11T23:51:34.897Z,26.90
2023-02-11T23:54:03.232Z,23.70
2023-02-11T23:56:31.294Z,24.90
2023-02-11T23:58:59.523Z,31.50
